Time;durP1;ratioP1;P1;durP2;ratioP2;P2;SDS_P1;SDS_P2;PMS_P1;PMS_P2;Temp;Humidity;BMP_temperature;BMP_pressure;BME280_temperature;BME280_humidity;BME280_pressure;Samples;Min_cycle;Max_cycle;Signal;HPM_P1;HPM_P2
2022/08/12 00:43:27;;;;;;;;;11.80;10.80;;;;;27.13;29.03;101192.84;5142092;27;45354;-52
2022/08/12 00:48:38;;;;;;;;;15.60;13.20;;;;;27.05;28.94;101188.59;5141583;27;45303;-53
2022/08/12 00:51:06;;;;;;;;;12.80;12.60;;;;;27.04;28.97;101187.75;5141948;27;45329;-52
2022/08/12 00:53:32;;;;;;;;;14.20;12.20;;;;;27.02;28.68;101195.38;5141596;27;45521;-56
2022/08/12 00:55:59;;;;;;;;;16.00;14.25;;;;;27.01;29.02;101188.28;5141840;27;45452;-50
2022/08/12 00:58:28;;;;;;;;;12.80;11.00;;;;;26.98;28.35;101180.56;5141644;27;47018;-52
2022/08/12 01:01:03;;;;;;;;;12.00;12.00;;;;;26.90;28.84;101171.94;5141693;27;45387;-50
2022/08/12 01:11:51;;;;;;;;;9.00;9.00;;;;;26.85;29.12;101169.94;5097720;27;45509;-53
2022/08/12 01:14:19;;;;;;;;;14.40;12.80;;;;;26.83;28.92;101177.53;5097753;27;45323;-53
2022/08/12 01:16:47;;;;;;;;;12.00;12.00;;;;;26.81;29.16;101171.50;5097926;27;45486;-51
2022/08/12 01:19:13;;;;;;;;;10.60;9.00;;;;;26.81;29.08;101176.97;5095934;27;46540;-51
2022/08/12 01:22:09;;;;;;;;;10.25;10.25;;;;;26.79;29.20;101174.47;5097623;27;45358;-52
2022/08/12 01:24:59;;;;;;;;;14.40;12.80;;;;;26.80;28.61;101178.00;5097466;27;45276;-50
2022/08/12 01:27:26;;;;;;;;;11.25;10.00;;;;;26.78;29.22;101183.72;5097766;27;45411;-52
2022/08/12 01:29:52;;;;;;;;;10.40;10.40;;;;;26.75;29.20;101178.75;5097228;27;45447;-50
2022/08/12 01:32:22;;;;;;;;;12.40;12.00;;;;;26.74;29.04;101187.19;5097376;27;45356;-53
2022/08/12 01:35:20;;;;;;;;;12.40;12.40;;;;;26.71;29.45;101183.03;5097427;27;45394;-50
2022/08/12 01:38:01;;;;;;;;;14.00;13.00;;;;;26.69;29.18;101177.00;5096104;27;45385;-50
2022/08/12 01:40:29;;;;;;;;;10.80;10.20;;;;;26.68;29.01;101185.44;5097171;27;47098;-53
2022/08/12 01:42:59;;;;;;;;;11.00;10.40;;;;;26.61;29.44;101172.75;5109004;27;45465;-52
2022/08/12 01:45:28;;;;;;;;;12.80;10.80;;;;;26.65;29.43;101173.09;5140653;27;45334;-53
2022/08/12 01:48:16;;;;;;;;;12.20;11.40;;;;;26.63;28.86;101180.69;5141122;27;45361;-54
2022/08/12 01:51:12;;;;;;;;;12.40;10.80;;;;;26.60;28.79;101178.47;5140200;27;45490;-52
2022/08/12 01:54:04;;;;;;;;;13.80;13.00;;;;;26.58;29.51;101175.97;5140438;27;45420;-53
2022/08/12 01:56:40;;;;;;;;;14.20;13.00;;;;;26.56;29.26;101183.56;5126995;27;45253;-54
2022/08/12 02:01:57;;;;;;;;;14.20;12.20;;;;;26.53;29.82;101180.50;5140610;27;45454;-52
2022/08/12 02:13:37;;;;;;;;;11.80;10.80;;;;;26.38;29.84;101162.72;5140288;27;45806;-52
2022/08/12 02:16:12;;;;;;;;;14.40;12.60;;;;;26.36;29.59;101155.84;5035868;28;45452;-51
2022/08/12 02:19:01;;;;;;;;;15.20;12.80;;;;;26.33;30.25;101159.03;5035864;28;45490;-49
2022/08/12 02:21:37;;;;;;;;;14.75;11.50;;;;;26.32;30.05;101152.75;4976501;28;45588;-53
2022/08/12 02:24:06;;;;;;;;;15.00;12.80;;;;;26.30;29.74;101154.09;4976292;28;46273;-52
2022/08/12 02:26:36;;;;;;;;;13.00;10.80;;;;;26.26;30.18;101152.91;4976077;28;45355;-53
2022/08/12 02:29:02;;;;;;;;;12.60;12.60;;;;;26.21;29.75;101152.78;4976049;28;45386;-52
2022/08/12 02:31:29;;;;;;;;;11.00;11.00;;;;;26.16;29.98;101142.59;4976495;28;45512;-51
2022/08/12 02:33:57;;;;;;;;;15.50;13.25;;;;;26.21;30.03;101156.38;4975696;28;46347;-52
2022/08/12 02:36:23;;;;;;;;;13.20;10.60;;;;;26.19;30.39;101157.66;4975980;28;45298;-53
2022/08/12 02:38:51;;;;;;;;;14.40;14.20;;;;;26.15;29.58;101161.94;4976157;28;45440;-52
2022/08/12 02:41:20;;;;;;;;;14.50;12.50;;;;;26.09;29.94;101153.66;4976295;28;45492;-53
2022/08/12 02:43:50;;;;;;;;;15.20;13.60;;;;;26.05;30.31;101152.47;4976041;28;47114;-51
2022/08/12 02:46:26;;;;;;;;;13.00;12.60;;;;;26.06;29.78;101148.69;4975628;28;45481;-52
2022/08/12 02:49:13;;;;;;;;;12.40;12.40;;;;;26.01;29.81;101142.28;4975677;28;45443;-52
2022/08/12 02:51:41;;;;;;;;;17.00;13.00;;;;;26.02;30.25;101150.22;4977200;28;45520;-52
2022/08/12 02:54:07;;;;;;;;;12.60;10.40;;;;;26.03;30.43;101148.31;5035274;28;45446;-49
2022/08/12 02:56:39;;;;;;;;;15.75;13.00;;;;;25.88;30.18;101130.56;5018287;28;45421;-53
2022/08/12 02:59:10;;;;;;;;;14.80;12.80;;;;;25.94;29.89;101142.41;5114751;27;45446;-51
2022/08/12 03:01:42;;;;;;;;;13.00;10.75;;;;;25.85;30.26;101130.22;5139782;27;45369;-50
2022/08/12 03:04:16;;;;;;;;;14.40;11.80;;;;;25.87;29.99;101142.56;5139304;27;47093;-50
2022/08/12 03:06:56;;;;;;;;;12.00;12.00;;;;;25.85;30.42;101143.84;5139244;27;45306;-51
2022/08/12 03:09:24;;;;;;;;;12.00;11.60;;;;;25.84;29.80;101145.75;5120963;27;45325;-52
2022/08/12 03:11:55;;;;;;;;;10.50;10.50;;;;;25.74;30.35;101131.84;5139593;27;45412;-53
2022/08/12 03:14:27;;;;;;;;;11.00;11.00;;;;;25.82;30.39;101142.41;5139210;27;46333;-52
2022/08/12 03:17:15;;;;;;;;;12.40;11.80;;;;;25.76;30.38;101143.34;5139412;27;45439;-51
2022/08/12 03:19:44;;;;;;;;;12.40;12.40;;;;;25.83;30.65;101151.41;5139278;27;45535;-53
2022/08/12 03:22:13;;;;;;;;;10.25;10.25;;;;;25.80;30.50;101146.47;5139742;27;45472;-53
2022/08/12 03:24:43;;;;;;;;;13.75;13.75;;;;;25.80;30.42;101150.00;5139055;27;46189;-53
2022/08/12 03:27:11;;;;;;;;;12.80;11.20;;;;;25.79;30.77;101151.09;5139124;27;45440;-52
2022/08/12 03:29:37;;;;;;;;;13.00;13.00;;;;;25.76;30.49;101151.53;5139372;27;45252;-52
2022/08/12 03:32:04;;;;;;;;;11.50;10.50;;;;;25.76;30.34;101150.69;5139361;27;45446;-53
2022/08/12 03:34:34;;;;;;;;;14.25;13.00;;;;;25.73;30.69;101162.88;5138716;27;46333;-52
2022/08/12 03:37:01;;;;;;;;;12.80;12.80;;;;;25.71;31.44;101158.75;5138840;27;45331;-53
2022/08/12 03:39:40;;;;;;;;;15.75;12.25;;;;;25.68;31.46;101162.78;5139066;27;45402;-52
2022/08/12 03:42:24;;;;;;;;;15.00;12.50;;;;;25.66;31.54;101159.44;5138162;27;45366;-48
2022/08/12 04:01:55;;;;;;;;;15.75;14.25;;;;;25.14;31.86;101102.91;5138854;27;45437;-52
2022/08/12 04:04:25;;;;;;;;;14.75;13.25;;;;;25.46;32.51;101150.81;5138916;27;45442;-52
2022/08/12 04:06:51;;;;;;;;;14.25;13.00;;;;;25.44;32.11;101155.66;5137738;27;45421;-50
2022/08/12 04:09:20;;;;;;;;;12.60;12.60;;;;;25.42;32.19;101153.16;5138504;27;45519;-52
2022/08/12 04:14:31;;;;;;;;;17.25;14.25;;;;;25.38;32.96;101147.34;5138881;27;45320;-51
2022/08/12 04:16:56;;;;;;;;;12.50;11.25;;;;;25.37;32.50;101151.16;5138267;27;45236;-51
2022/08/12 04:19:23;;;;;;;;;13.50;13.50;;;;;25.32;32.78;101142.84;5138507;27;45426;-51
2022/08/12 04:21:49;;;;;;;;;15.00;15.00;;;;;25.31;32.18;101141.19;5120218;27;45497;-49
2022/08/12 04:24:17;;;;;;;;;13.00;13.00;;;;;25.14;32.48;101127.41;5138736;27;45212;-53
2022/08/12 04:26:42;;;;;;;;;13.25;12.00;;;;;25.12;32.10;101128.75;5138390;27;46148;-52
2022/08/12 04:29:09;;;;;;;;;15.25;14.50;;;;;25.16;31.86;101142.69;5137984;27;45377;-49
2022/08/12 04:31:34;;;;;;;;;18.25;15.25;;;;;25.16;32.44;101148.13;5137639;27;45361;-50
2022/08/12 04:34:01;;;;;;;;;12.00;11.75;;;;;25.12;32.07;101145.06;5138703;27;45457;-54
2022/08/12 04:36:27;;;;;;;;;14.75;13.25;;;;;25.09;31.96;101151.81;5119412;27;46188;-53
2022/08/12 04:38:53;;;;;;;;;16.50;13.50;;;;;24.95;32.18;101131.28;5138114;27;45267;-52
2022/08/12 04:41:20;;;;;;;;;16.00;14.50;;;;;25.05;32.26;101153.28;5138278;27;45379;-53
2022/08/12 04:43:47;;;;;;;;;15.00;14.25;;;;;25.00;32.17;101145.00;5138473;27;45475;-52
2022/08/12 04:46:13;;;;;;;;;14.25;13.50;;;;;25.01;32.27;101160.25;5138087;27;46121;-53
2022/08/12 04:48:39;;;;;;;;;16.40;14.00;;;;;25.00;32.35;101150.44;5138020;27;45530;-56
2022/08/12 04:51:05;;;;;;;;;14.50;13.25;;;;;24.99;32.12;101153.38;5138074;27;45365;-57
2022/08/12 04:53:31;;;;;;;;;13.50;13.25;;;;;24.98;32.12;101149.00;5140567;27;45369;-51
2022/08/12 04:55:59;;;;;;;;;15.75;14.75;;;;;25.00;32.04;101150.44;5141554;27;47188;-52
2022/08/12 04:58:24;;;;;;;;;14.50;14.00;;;;;25.01;32.03;101160.25;5141695;27;45348;-49
2022/08/12 05:00:50;;;;;;;;;14.50;13.25;;;;;24.99;32.40;101156.09;5141398;27;45223;-53
2022/08/12 05:03:15;;;;;;;;;19.00;15.25;;;;;25.00;32.10;101164.06;5141789;27;45228;-52
2022/08/12 05:05:42;;;;;;;;;14.75;12.75;;;;;25.02;32.56;101163.81;5141197;27;46339;-54
2022/08/12 05:08:15;;;;;;;;;15.00;13.25;;;;;25.02;32.04;101159.19;5141473;27;45446;-51
2022/08/12 05:10:45;;;;;;;;;14.00;14.00;;;;;25.03;32.61;101163.59;5141123;27;45355;-53
2022/08/12 05:13:24;;;;;;;;;17.00;16.75;;;;;25.01;31.92;101168.44;5122930;27;45320;-50
2022/08/12 05:15:50;;;;;;;;;13.25;13.25;;;;;25.00;32.33;101164.06;5141235;27;45366;-52
2022/08/12 05:18:16;;;;;;;;;16.50;14.00;;;;;25.01;32.50;101162.16;5140465;27;45383;-53
2022/08/12 05:20:42;;;;;;;;;12.50;12.50;;;;;24.98;32.01;101162.63;5141349;27;45295;-51
2022/08/12 05:23:10;;;;;;;;;13.00;13.00;;;;;25.00;32.05;101169.50;5141270;27;45593;-52
2022/08/12 05:25:35;;;;;;;;;13.00;11.75;;;;;25.01;32.33;101165.72;5141196;27;45428;-50
2022/08/12 05:28:02;;;;;;;;;13.50;13.50;;;;;25.01;32.32;101171.16;5141073;27;45223;-52
2022/08/12 05:30:29;;;;;;;;;13.75;11.25;;;;;24.92;32.60;101158.13;5141075;27;45407;-52
2022/08/12 05:32:56;;;;;;;;;12.00;9.75;;;;;25.00;32.34;101166.78;5141371;27;45388;-52
2022/08/12 05:35:22;;;;;;;;;15.00;13.75;;;;;24.94;31.90;101159.53;5140338;27;45387;-53
2022/08/12 05:37:48;;;;;;;;;15.25;13.50;;;;;25.01;31.62;101173.03;5140736;27;45381;-53
2022/08/12 05:40:13;;;;;;;;;9.25;9.00;;;;;24.97;31.66;101169.94;5140723;27;45317;-53
2022/08/12 05:42:39;;;;;;;;;13.50;12.00;;;;;24.98;31.77;101177.06;5141270;27;45206;-52
2022/08/12 05:45:05;;;;;;;;;15.00;15.00;;;;;24.85;31.84;101150.84;5140730;27;46010;-51
2022/08/12 05:47:31;;;;;;;;;12.80;11.00;;;;;24.96;32.11;101178.38;5140742;27;45385;-51
2022/08/12 05:49:58;;;;;;;;;13.75;11.00;;;;;24.62;31.75;101116.25;5140834;27;45263;-52
2022/08/12 05:52:23;;;;;;;;;12.25;12.25;;;;;24.96;31.92;101170.19;5141071;27;45419;-52
2022/08/12 05:54:49;;;;;;;;;13.50;13.25;;;;;24.98;31.27;101176.22;5139538;27;45564;-53
2022/08/12 05:57:14;;;;;;;;;12.75;12.75;;;;;24.99;31.32;101176.00;5140087;27;45237;-53
2022/08/12 05:59:40;;;;;;;;;15.50;12.75;;;;;25.00;31.63;101174.94;5141032;27;45418;-52
2022/08/12 06:02:08;;;;;;;;;14.00;12.00;;;;;24.91;31.38;101156.47;5141210;27;45477;-52
2022/08/12 06:04:34;;;;;;;;;15.50;14.50;;;;;24.98;31.68;101174.31;5139791;27;46273;-52
2022/08/12 06:07:00;;;;;;;;;11.50;11.25;;;;;25.04;31.57;101184.31;5140405;27;45372;-53
2022/08/12 06:09:29;;;;;;;;;10.25;10.25;;;;;25.06;31.26;101175.91;5140321;27;45343;-53
2022/08/12 06:11:54;;;;;;;;;13.75;12.00;;;;;25.05;31.77;101166.91;5140994;27;45434;-54
2022/08/12 06:14:21;;;;;;;;;9.50;9.00;;;;;25.09;31.07;101170.03;5140267;27;46079;-53
2022/08/12 06:16:46;;;;;;;;;15.00;12.00;;;;;25.11;31.35;101163.31;5140639;27;45392;-53
2022/08/12 06:19:12;;;;;;;;;14.25;13.50;;;;;25.08;31.30;101158.31;5140525;27;45464;-53
2022/08/12 06:21:37;;;;;;;;;13.50;11.50;;;;;25.17;30.74;101166.97;5121822;27;45330;-51
2022/08/12 06:24:03;;;;;;;;;11.50;11.25;;;;;25.20;30.75;101171.97;5140381;27;45747;-52
2022/08/12 06:26:28;;;;;;;;;15.25;12.75;;;;;25.25;30.69;101168.53;5140316;27;45442;-50
2022/08/12 06:28:55;;;;;;;;;16.00;13.75;;;;;25.26;30.43;101173.75;5140502;27;45236;-54
2022/08/12 06:31:21;;;;;;;;;12.50;12.50;;;;;25.30;30.32;101169.50;5140482;27;45308;-53
2022/08/12 06:33:48;;;;;;;;;10.25;10.25;;;;;25.37;30.96;101175.66;5139899;27;46852;-51
2022/08/12 06:36:17;;;;;;;;;12.80;12.20;;;;;25.42;30.26;101171.41;5139638;27;45336;-52
2022/08/12 06:38:44;;;;;;;;;15.40;12.40;;;;;25.47;30.96;101177.81;5140313;27;45347;-53
2022/08/12 06:43:55;;;;;;;;;13.00;11.50;;;;;25.55;30.46;101184.81;5139930;27;45635;-52
2022/08/12 06:46:23;;;;;;;;;13.00;13.00;;;;;25.60;30.00;101177.56;5139932;27;45434;-56
2022/08/12 06:48:49;;;;;;;;;12.20;10.60;;;;;25.66;29.66;101183.13;5140019;27;45263;-50
2022/08/12 06:51:17;;;;;;;;;12.75;10.75;;;;;25.70;30.06;101187.88;5140203;27;45469;-50
2022/08/12 06:53:43;;;;;;;;;12.25;11.75;;;;;25.75;29.58;101182.56;5139599;27;46217;-50
2022/08/12 06:56:09;;;;;;;;;13.50;13.50;;;;;25.81;29.58;101181.63;5139708;27;45353;-51
2022/08/12 06:58:38;;;;;;;;;10.00;8.75;;;;;25.90;30.02;101178.56;5140135;27;45324;-49
2022/08/12 07:01:04;;;;;;;;;14.75;14.50;;;;;26.02;29.58;101176.66;5121406;27;45447;-52
2022/08/12 07:03:30;;;;;;;;;14.00;11.00;;;;;26.20;29.96;101181.97;5139643;27;46562;-53
2022/08/12 07:06:01;;;;;;;;;15.00;12.00;;;;;26.47;29.45;101176.03;5139633;27;45472;-50
2022/08/12 07:08:28;;;;;;;;;10.20;9.40;;;;;26.82;28.78;101170.41;5139792;27;45190;-52
2022/08/12 07:11:05;;;;;;;;;12.60;11.40;;;;;27.24;28.63;101172.84;5139968;27;45260;-53
2022/08/12 07:13:41;;;;;;;;;12.80;12.80;;;;;27.83;27.72;101176.00;5139887;27;46217;-51
2022/08/12 07:16:07;;;;;;;;;10.80;10.60;;;;;28.44;27.97;101176.84;5138421;27;45445;-49
2022/08/12 07:18:33;;;;;;;;;15.25;11.75;;;;;28.90;26.72;101168.31;5139893;27;45419;-49
2022/08/12 07:21:01;;;;;;;;;10.50;10.50;;;;;29.40;26.04;101157.03;5139831;27;45514;-50
2022/08/12 07:23:27;;;;;;;;;15.80;11.00;;;;;30.02;25.34;101161.03;5139353;27;46396;-49
2022/08/12 07:25:53;;;;;;;;;9.40;9.40;;;;;30.80;24.12;101167.44;5139311;27;45304;-52
2022/08/12 07:28:24;;;;;;;;;12.20;8.80;;;;;31.53;23.12;101153.47;5139458;27;45386;-49
2022/08/12 07:30:52;;;;;;;;;12.00;9.80;;;;;31.93;23.51;101162.75;5139622;27;45389;-52
2022/08/12 07:33:28;;;;;;;;;10.80;8.20;;;;;32.29;22.41;101162.63;5138991;27;47211;-49
2022/08/12 07:35:55;;;;;;;;;14.40;10.60;;;;;32.50;22.81;101155.94;5138991;27;45451;-49
2022/08/12 07:38:36;;;;;;;;;13.80;11.20;;;;;33.06;21.93;101154.78;5139103;27;45421;-50
2022/08/12 07:41:07;;;;;;;;;8.40;7.40;;;;;33.77;21.15;101156.09;5139457;27;45188;-52
2022/08/12 07:43:35;;;;;;;;;11.00;9.60;;;;;34.43;22.49;101149.81;5139186;27;45397;-51
2022/08/12 07:46:03;;;;;;;;;10.40;9.40;;;;;34.96;20.86;101151.53;5139033;27;45364;-51
2022/08/12 07:48:47;;;;;;;;;8.60;8.60;;;;;35.62;20.80;101150.47;5139210;27;45433;-52
2022/08/12 07:51:13;;;;;;;;;12.20;9.40;;;;;36.41;19.04;101155.00;5139140;27;45396;-56
2022/08/12 07:53:39;;;;;;;;;9.25;9.25;;;;;36.92;19.10;101157.47;5138745;27;46223;-52
2022/08/12 07:56:08;;;;;;;;;10.80;7.80;;;;;38.05;19.40;101146.16;5138973;27;45172;-52
2022/08/12 07:58:37;;;;;;;;;12.00;10.00;;;;;39.40;15.97;101151.66;5139178;27;45436;-50
2022/08/12 08:01:04;;;;;;;;;9.40;8.60;;;;;41.33;15.89;101151.72;5139106;27;45439;-48
2022/08/12 08:03:29;;;;;;;;;10.60;10.60;;;;;42.60;13.16;101139.53;5138840;27;46203;-52
2022/08/12 08:05:55;;;;;;;;;7.00;7.00;;;;;44.31;12.18;101150.84;5137981;27;45545;-50
2022/08/12 08:08:26;;;;;;;;;10.25;8.25;;;;;44.98;13.11;101147.84;5138872;27;45440;-52
2022/08/12 08:12:52;;;;;;;;;8.00;8.00;;;;;45.81;11.19;101161.41;5139114;27;45333;-51
2022/08/12 08:13:43;;;;;;;;;8.60;8.60;;;;;46.71;11.00;101153.88;5138213;27;46052;-48
2022/08/12 08:16:08;;;;;;;;;12.40;9.60;;;;;47.31;10.83;101154.97;5137841;27;45421;-52
2022/08/12 08:18:34;;;;;;;;;10.50;8.50;;;;;48.44;10.17;101160.66;5138690;27;45353;-52
2022/08/12 08:21:00;;;;;;;;;12.00;8.75;;;;;49.36;9.14;101150.84;5138736;27;45230;-53
2022/08/12 08:24:13;;;;;;;;;9.25;9.00;;;;;50.36;8.87;101159.25;5138514;27;46074;-53
2022/08/12 08:26:14;;;;;;;;;9.40;7.00;;;;;50.98;10.14;101154.91;5138475;27;45426;-53
2022/08/12 08:28:40;;;;;;;;;8.60;7.60;;;;;51.01;9.37;101171.09;5141101;27;45184;-52
2022/08/12 08:31:05;;;;;;;;;6.50;6.50;;;;;51.51;7.86;101173.56;5142457;27;45461;-52
2022/08/12 08:33:31;;;;;;;;;8.75;7.50;;;;;52.44;7.90;101171.88;5141981;27;46278;-52
2022/08/12 08:35:58;;;;;;;;;11.00;9.00;;;;;52.89;7.02;101168.84;5141997;27;45342;-53
2022/08/12 08:38:23;;;;;;;;;10.40;9.20;;;;;53.29;7.96;101170.69;5142040;27;45491;-52
2022/08/12 08:43:32;;;;;;;;;7.80;7.80;;;;;53.14;7.82;101163.56;5142095;27;45808;-50
2022/08/12 08:46:00;;;;;;;;;9.25;8.00;;;;;53.34;7.15;101169.38;5142171;27;45354;-48
2022/08/12 08:48:29;;;;;;;;;7.40;7.40;;;;;54.08;6.70;101167.25;5141776;27;45293;-50
2022/08/12 08:50:55;;;;;;;;;6.80;6.80;;;;;54.57;6.72;101163.81;5141968;27;45381;-52
2022/08/12 08:53:20;;;;;;;;;7.50;7.50;;;;;55.24;8.10;101170.03;5122370;27;46515;-52
2022/08/12 08:55:48;;;;;;;;;8.50;8.00;;;;;55.00;7.55;101168.59;5141645;27;45222;-51
2022/08/12 08:58:13;;;;;;;;;8.00;7.40;;;;;54.73;7.24;101166.72;5141803;27;45388;-51
2022/08/12 09:00:39;;;;;;;;;7.75;7.75;;;;;54.90;6.46;101159.03;5141928;27;45353;-53
2022/08/12 09:03:06;;;;;;;;;8.50;7.75;;;;;55.06;8.03;101161.88;5141584;27;47200;-52
2022/08/12 09:05:32;;;;;;;;;9.00;8.80;;;;;55.13;5.75;101162.97;5141807;27;45379;-51
2022/08/12 09:08:00;;;;;;;;;8.80;7.20;;;;;55.70;6.13;101172.94;5141574;27;45425;-54
2022/08/12 09:10:26;;;;;;;;;8.00;8.00;;;;;56.15;6.27;101166.44;5141770;27;45319;-50
2022/08/12 09:15:35;;;;;;;;;6.00;6.00;;;;;56.74;5.15;101170.81;5141468;27;45323;-52
2022/08/12 09:18:04;;;;;;;;;8.50;8.50;;;;;56.65;6.03;101165.75;5141424;27;45369;-54
2022/08/12 09:20:32;;;;;;;;;8.00;8.00;;;;;57.24;5.49;101154.88;5141560;27;45429;-53
2022/08/12 09:23:00;;;;;;;;;7.40;7.40;;;;;56.83;5.84;101161.53;5140969;27;47112;-53
2022/08/12 09:25:27;;;;;;;;;6.60;6.00;;;;;56.67;6.71;101151.78;5140871;27;45423;-53
2022/08/12 09:27:53;;;;;;;;;7.80;7.80;;;;;56.60;5.13;101154.88;5141338;27;45462;-53
2022/08/12 09:30:20;;;;;;;;;9.60;7.80;;;;;56.54;6.09;101153.03;5141483;27;45351;-51
2022/08/12 09:32:50;;;;;;;;;6.40;5.60;;;;;56.55;6.16;101161.16;5141025;27;46254;-52
2022/08/12 09:35:16;;;;;;;;;7.20;6.60;;;;;57.08;5.53;101149.31;5140739;27;45254;-53
2022/08/12 09:37:41;;;;;;;;;7.00;5.40;;;;;56.78;5.09;101157.19;5141149;27;45565;-51
2022/08/12 09:40:08;;;;;;;;;8.00;6.00;;;;;56.64;5.95;101158.44;5140173;27;45381;-52
2022/08/12 09:45:21;;;;;;;;;5.60;5.00;;;;;56.00;6.04;101149.66;5140872;27;45345;-52
2022/08/12 09:47:50;;;;;;;;;7.00;5.20;;;;;56.35;5.32;101144.22;5140228;27;45432;-51
2022/08/12 09:50:16;;;;;;;;;6.80;6.00;;;;;56.61;6.21;101136.47;5141265;27;45297;-50
2022/08/12 09:52:44;;;;;;;;;7.00;7.00;;;;;56.98;5.04;101132.03;5139978;27;45434;-52
2022/08/12 09:55:10;;;;;;;;;5.40;5.40;;;;;57.26;4.88;101140.91;5140706;27;45467;-53
2022/08/12 09:57:36;;;;;;;;;5.00;5.00;;;;;57.22;5.61;101135.31;5140936;27;45420;-48
2022/08/12 10:00:05;;;;;;;;;7.20;7.20;;;;;56.85;5.66;101131.22;5141017;27;45441;-50
2022/08/12 10:02:36;;;;;;;;;6.40;6.40;;;;;56.25;6.12;101117.56;5140828;27;45356;-53
2022/08/12 10:05:02;;;;;;;;;5.60;5.60;;;;;56.14;6.09;101131.38;5140601;27;45329;-51
2022/08/12 10:07:29;;;;;;;;;6.20;5.00;;;;;55.92;5.19;101122.59;5140682;27;45274;-54
2022/08/12 10:09:54;;;;;;;;;5.00;5.00;;;;;56.47;5.29;101117.75;5140933;27;45464;-52
2022/08/12 10:15:04;;;;;;;;;8.00;6.20;;;;;56.76;6.38;101123.34;5140528;27;45250;-53
2022/08/12 10:17:29;;;;;;;;;7.75;6.50;;;;;56.30;4.97;101115.38;5140685;27;45372;-52
2022/08/12 10:19:55;;;;;;;;;5.00;5.00;;;;;56.48;5.16;101115.69;5140815;27;45312;-54
2022/08/12 10:22:20;;;;;;;;;6.00;5.00;;;;;56.45;5.00;101105.94;5140215;27;46215;-53
2022/08/12 10:29:35;;;;;;;;;6.00;6.00;;;;;56.03;6.05;101091.69;5140467;27;45285;-53
2022/08/12 10:30:16;;;;;;;;;7.00;6.00;;;;;56.48;4.95;101096.47;5140502;27;45439;-54
2022/08/12 10:32:42;;;;;;;;;6.00;5.80;;;;;56.40;5.51;101089.38;5140148;27;46989;-53
2022/08/12 10:35:08;;;;;;;;;5.00;5.00;;;;;56.19;4.93;101085.13;5138791;27;45323;-54
2022/08/12 10:37:34;;;;;;;;;6.25;5.00;;;;;55.83;5.59;101093.91;5140281;27;45463;-52
2022/08/12 10:39:59;;;;;;;;;5.20;4.60;;;;;55.69;5.63;101083.69;5121929;27;45570;-53
2022/08/12 10:45:09;;;;;;;;;4.00;4.00;;;;;55.63;5.13;101082.66;5140123;27;45332;-50
2022/08/12 10:47:36;;;;;;;;;5.00;4.75;;;;;55.28;5.43;101081.53;5140063;27;45331;-54
2022/08/12 10:50:04;;;;;;;;;5.60;5.20;;;;;55.19;5.36;101081.38;5139887;27;45487;-53
2022/08/12 10:52:30;;;;;;;;;4.60;4.60;;;;;55.19;5.95;101076.47;5138854;27;45338;-53
2022/08/12 10:54:57;;;;;;;;;5.00;5.00;;;;;55.05;5.25;101054.81;5139850;27;45481;-55
2022/08/12 10:57:25;;;;;;;;;6.40;6.40;;;;;54.95;5.23;101072.97;5139496;27;45393;-54
2022/08/12 10:59:55;;;;;;;;;5.60;5.20;;;;;54.81;5.27;101059.06;5139884;27;45384;-53
2022/08/12 11:02:26;;;;;;;;;5.40;5.00;;;;;54.88;5.05;101058.94;5138959;27;45317;-53
2022/08/12 11:04:56;;;;;;;;;4.80;4.80;;;;;55.05;5.13;101057.66;5139534;27;45449;-54
2022/08/12 11:07:23;;;;;;;;;5.20;5.20;;;;;54.97;6.05;101069.69;5139788;27;45357;-53
2022/08/12 11:09:49;;;;;;;;;5.00;5.00;;;;;54.60;5.58;101051.84;5139910;27;45365;-51
2022/08/12 11:12:16;;;;;;;;;5.00;5.00;;;;;54.58;5.49;101054.34;5139641;27;47083;-54
2022/08/12 11:14:41;;;;;;;;;3.60;3.60;;;;;54.11;5.78;101031.75;5138928;27;45434;-54
2022/08/12 11:17:11;;;;;;;;;4.75;4.75;;;;;53.67;5.62;101045.28;5139610;27;45469;-53
2022/08/12 11:19:38;;;;;;;;;4.60;4.60;;;;;53.25;6.18;101042.00;5139794;27;45397;-54
2022/08/12 11:22:06;;;;;;;;;6.60;6.60;;;;;53.13;6.36;101031.22;5139305;27;46353;-52
2022/08/12 11:24:32;;;;;;;;;6.80;6.40;;;;;53.20;5.70;101030.28;5139324;27;45504;-52
2022/08/12 11:26:59;;;;;;;;;1.00;1.00;;;;;52.82;5.78;101010.63;5139468;27;45218;-53
2022/08/12 11:29:27;;;;;;;;;6.20;6.20;;;;;52.93;6.40;101016.16;5139774;27;45452;-51
2022/08/12 11:31:53;;;;;;;;;5.40;5.40;;;;;52.44;6.33;101018.53;5139255;27;45991;-53
2022/08/12 11:34:19;;;;;;;;;4.80;4.80;;;;;51.76;6.87;101030.75;5139150;27;45324;-53
2022/08/12 11:37:09;;;;;;;;;4.80;4.80;;;;;51.13;6.36;101022.44;5139169;27;45371;-51
2022/08/12 11:39:34;;;;;;;;;5.40;5.20;;;;;50.20;6.90;101019.44;5139698;27;45242;-53
2022/08/12 11:42:00;;;;;;;;;3.50;3.50;;;;;49.99;7.15;101009.00;5137951;27;45408;-52
2022/08/12 11:44:26;;;;;;;;;7.00;4.00;;;;;48.60;7.73;100995.78;5139031;27;45802;-53
2022/08/12 11:46:56;;;;;;;;;7.25;5.75;;;;;46.71;8.90;101001.88;5139248;27;45357;-54
2022/08/12 11:49:24;;;;;;;;;5.60;5.60;;;;;45.27;9.44;100992.72;5125290;27;45362;-52
2022/08/12 11:51:49;;;;;;;;;8.20;7.20;;;;;43.94;10.15;101002.59;5117656;27;45376;-51
2022/08/12 11:54:15;;;;;;;;;7.75;6.75;;;;;42.68;10.65;100992.28;5117801;27;45250;-52
2022/08/12 11:56:40;;;;;;;;;5.00;5.00;;;;;41.48;11.07;100993.09;5118343;27;45366;-49
2022/08/12 11:59:06;;;;;;;;;5.00;5.00;;;;;40.13;12.22;100995.53;5118399;27;45341;-52
2022/08/12 12:01:31;;;;;;;;;6.00;6.00;;;;;39.33;13.03;101010.22;5117729;27;45430;-52
2022/08/12 12:03:57;;;;;;;;;5.00;5.00;;;;;38.92;12.99;100994.16;5117622;27;45260;-52
2022/08/12 12:06:22;;;;;;;;;5.25;5.25;;;;;38.75;12.48;101000.56;5118061;27;45418;-51
2022/08/12 12:08:48;;;;;;;;;6.00;6.00;;;;;38.30;13.70;100987.03;5118031;27;45385;-51
2022/08/12 12:11:13;;;;;;;;;6.50;5.00;;;;;38.03;13.33;100992.91;5117849;27;46115;-48
2022/08/12 12:13:39;;;;;;;;;5.25;5.25;;;;;37.66;13.97;100998.72;5117679;27;45430;-50
2022/08/12 12:16:05;;;;;;;;;5.00;5.00;;;;;37.35;13.67;100968.25;5117336;27;45436;-50
2022/08/12 12:18:32;;;;;;;;;4.00;4.00;;;;;37.24;13.63;100978.00;5118056;27;45313;-48
2022/08/12 12:21:03;;;;;;;;;5.40;4.80;;;;;37.11;14.14;100982.50;5117387;27;45405;-50
2022/08/12 12:23:29;;;;;;;;;7.20;5.60;;;;;36.96;14.16;100971.84;5117689;27;45329;-52
2022/08/12 12:25:55;;;;;;;;;8.75;7.25;;;;;36.93;14.63;100967.75;5117572;27;45334;-49
2022/08/12 12:28:20;;;;;;;;;5.80;5.80;;;;;37.01;14.56;100974.50;5117910;27;45376;-51
2022/08/12 12:30:46;;;;;;;;;5.75;5.25;;;;;36.79;14.51;100957.84;5117642;27;45409;-49
2022/08/12 12:33:12;;;;;;;;;0.50;0.00;;;;;36.74;14.60;100964.34;5117677;27;45271;-49
2022/08/12 12:35:38;;;;;;;;;5.20;5.20;;;;;36.76;14.49;100975.97;5117348;27;45253;-52
2022/08/12 12:38:09;;;;;;;;;4.00;4.00;;;;;36.69;14.67;100970.03;5117868;27;45240;-50
2022/08/12 12:40:36;;;;;;;;;9.00;6.20;;;;;36.62;14.42;100973.28;5117152;27;46263;-50
2022/08/12 12:43:03;;;;;;;;;5.20;5.20;;;;;36.46;15.36;100963.72;5117346;27;45320;-52
2022/08/12 12:45:33;;;;;;;;;7.40;6.00;;;;;36.38;14.94;100962.47;5117558;27;45424;-48
2022/08/12 12:48:03;;;;;;;;;8.40;6.80;;;;;36.19;15.09;100957.09;5117486;27;45503;-52
2022/08/12 12:50:33;;;;;;;;;7.00;7.00;;;;;36.13;15.64;100950.06;5128686;27;46937;-51
2022/08/12 12:52:58;;;;;;;;;7.00;7.00;;;;;36.02;15.37;100967.22;5137777;27;45325;-49
2022/08/12 12:55:25;;;;;;;;;6.00;6.00;;;;;35.95;15.69;100975.97;5137617;27;45327;-51
2022/08/12 12:57:51;;;;;;;;;5.20;5.00;;;;;35.91;15.69;100950.84;5138317;27;45388;-56
2022/08/12 13:00:18;;;;;;;;;6.00;4.50;;;;;35.85;15.37;100946.53;5137867;27;46953;-52
2022/08/12 13:02:54;;;;;;;;;6.60;6.60;;;;;35.74;15.95;100940.44;5137816;27;45315;-51
2022/08/12 13:05:43;;;;;;;;;7.00;7.00;;;;;35.69;16.49;100945.25;5138001;27;45277;-51
2022/08/12 13:08:25;;;;;;;;;4.60;4.60;;;;;35.58;15.77;100944.66;5137989;27;45336;-50
2022/08/12 13:10:59;;;;;;;;;9.00;8.20;;;;;35.38;15.51;100939.53;5137357;27;45326;-52